Time;durP1;ratioP1;P1;durP2;ratioP2;P2;SDS_P1;SDS_P2;PMS_P1;PMS_P2;Temp;Humidity;BMP_temperature;BMP_pressure;BME280_temperature;BME280_humidity;BME280_pressure;Samples;Min_cycle;Max_cycle;Signal;HPM_P1;HPM_P2
2022/09/21 00:01:10;;;;;;;30.38;19.77;;;9.20;99.90;;;;;;5075210;28;20052;-74
2022/09/21 00:03:40;;;;;;;29.50;18.45;;;9.20;99.90;;;;;;5073980;28;20043;-72
2022/09/21 00:06:09;;;;;;;31.00;21.02;;;9.20;99.90;;;;;;5075004;28;20040;-72
2022/09/21 00:08:37;;;;;;;32.53;21.63;;;9.20;99.90;;;;;;5056185;28;20531;-73
2022/09/21 00:11:04;;;;;;;34.53;22.27;;;9.30;99.90;;;;;;5073767;28;20041;-72
2022/09/21 00:13:33;;;;;;;35.35;21.58;;;9.20;99.90;;;;;;5057583;28;20040;-73
2022/09/21 00:16:01;;;;;;;29.05;19.50;;;9.20;99.90;;;;;;5077701;28;20040;-71
2022/09/21 00:18:29;;;;;;;34.67;22.27;;;9.20;99.90;;;;;;5083960;28;20090;-73
2022/09/21 00:20:56;;;;;;;35.60;22.50;;;9.20;99.90;;;;;;5090475;28;20048;-73
2022/09/21 00:23:25;;;;;;;36.95;22.02;;;9.20;99.90;;;;;;5064847;28;20514;-72
2022/09/21 00:25:52;;;;;;;36.00;23.05;;;9.20;99.90;;;;;;5076625;28;20040;-72
2022/09/21 00:28:20;;;;;;;37.20;22.95;;;9.20;99.90;;;;;;5056809;28;20048;-73
2022/09/21 00:30:50;;;;;;;33.45;23.15;;;9.10;99.90;;;;;;5074696;28;20048;-72
2022/09/21 00:33:17;;;;;;;37.42;22.52;;;8.90;99.90;;;;;;5075738;28;20091;-72
2022/09/21 00:35:45;;;;;;;36.55;22.23;;;8.90;99.90;;;;;;5076134;28;20040;-72
2022/09/21 00:38:12;;;;;;;29.52;21.23;;;8.90;99.90;;;;;;5063765;28;20049;-72
2022/09/21 00:40:39;;;;;;;27.67;18.30;;;8.90;99.90;;;;;;5083561;28;20052;-72
2022/09/21 00:43:14;;;;;;;21.98;14.77;;;9.00;99.90;;;;;;5057406;28;20049;-73
2022/09/21 00:45:42;;;;;;;24.08;13.70;;;9.10;99.90;;;;;;5074802;28;20041;-72
2022/09/21 00:48:11;;;;;;;20.95;13.95;;;9.10;99.90;;;;;;5076545;28;20029;-72
2022/09/21 00:50:43;;;;;;;28.13;18.25;;;9.20;99.90;;;;;;5060025;28;20086;-72
2022/09/21 00:53:10;;;;;;;34.03;20.73;;;9.20;99.90;;;;;;5079080;28;20048;-72
2022/09/21 00:55:43;;;;;;;34.15;20.95;;;9.20;99.90;;;;;;5077546;28;20044;-72
2022/09/21 00:58:13;;;;;;;50.38;33.03;;;9.20;99.90;;;;;;5081428;28;20052;-73
2022/09/21 01:00:42;;;;;;;30.02;19.38;;;9.10;99.90;;;;;;5094185;28;20064;-72
2022/09/21 01:03:12;;;;;;;35.10;20.65;;;9.20;99.90;;;;;;5101217;28;20064;-72
2022/09/21 01:05:39;;;;;;;34.53;20.90;;;9.10;99.90;;;;;;5073414;28;20052;-74
2022/09/21 01:08:10;;;;;;;36.75;23.50;;;9.10;99.90;;;;;;5073267;28;20043;-72
2022/09/21 01:10:51;;;;;;;36.63;23.55;;;9.10;99.90;;;;;;5074041;28;20052;-72
2022/09/21 01:13:34;;;;;;;36.17;23.55;;;9.10;99.90;;;;;;5074311;28;20077;-72
2022/09/21 01:16:07;;;;;;;36.92;22.42;;;9.10;99.90;;;;;;5074009;28;20040;-72
2022/09/21 01:18:43;;;;;;;34.95;22.80;;;9.10;99.90;;;;;;5073062;28;20465;-72
2022/09/21 01:21:22;;;;;;;37.15;24.33;;;9.10;99.90;;;;;;5074276;28;20495;-73
2022/09/21 01:24:17;;;;;;;36.65;24.65;;;9.00;99.90;;;;;;5073242;28;20041;-72
2022/09/21 01:27:10;;;;;;;43.83;26.40;;;9.10;99.90;;;;;;5072495;28;20395;-73
2022/09/21 01:29:43;;;;;;;55.72;34.33;;;9.00;99.90;;;;;;5073373;28;20044;-73
2022/09/21 01:32:16;;;;;;;42.38;26.73;;;9.00;99.90;;;;;;5074692;28;20052;-73
2022/09/21 01:34:49;;;;;;;40.05;26.40;;;9.00;99.90;;;;;;5079916;28;20075;-73
2022/09/21 01:37:20;;;;;;;39.97;24.10;;;9.00;99.90;;;;;;5087395;28;20406;-72
2022/09/21 01:39:53;;;;;;;37.22;24.05;;;9.10;99.90;;;;;;5103519;28;20100;-72
2022/09/21 01:42:21;;;;;;;36.00;24.20;;;9.10;99.90;;;;;;5101360;28;20044;-72
2022/09/21 01:44:50;;;;;;;38.03;23.83;;;9.20;99.90;;;;;;5098090;28;20062;-72
2022/09/21 01:47:19;;;;;;;32.30;22.80;;;9.20;99.90;;;;;;5100996;28;20399;-72
2022/09/21 01:49:49;;;;;;;34.00;23.13;;;9.30;99.90;;;;;;5084757;28;20062;-72
2022/09/21 01:52:21;;;;;;;35.13;22.85;;;9.30;99.90;;;;;;5079139;28;20434;-73
2022/09/21 01:54:53;;;;;;;44.92;25.67;;;9.30;99.90;;;;;;5078160;28;20075;-74
2022/09/21 01:57:26;;;;;;;38.00;24.27;;;9.40;99.90;;;;;;5077171;28;20045;-72
2022/09/21 01:59:57;;;;;;;36.70;23.88;;;9.40;99.90;;;;;;5060410;28;20045;-73
2022/09/21 02:02:31;;;;;;;36.63;23.98;;;9.40;99.90;;;;;;5077886;28;20048;-75
2022/09/21 02:05:00;;;;;;;35.28;22.92;;;9.40;99.90;;;;;;5078367;28;20097;-72
2022/09/21 02:07:28;;;;;;;32.22;20.13;;;9.40;99.90;;;;;;5079391;28;20491;-73
2022/09/21 02:09:56;;;;;;;31.08;19.52;;;9.40;99.90;;;;;;5078111;28;20048;-73
2022/09/21 02:12:24;;;;;;;40.75;23.20;;;9.50;99.90;;;;;;5077964;28;20393;-73
2022/09/21 02:14:56;;;;;;;34.08;20.60;;;9.50;99.90;;;;;;5078136;28;20040;-72
2022/09/21 02:17:36;;;;;;;40.60;22.55;;;9.40;99.90;;;;;;5076809;28;20044;-71
2022/09/21 02:20:16;;;;;;;35.15;20.60;;;9.40;99.90;;;;;;5057692;28;20466;-72
2022/09/21 02:22:56;;;;;;;26.65;17.65;;;9.40;99.90;;;;;;5057795;28;20462;-72
2022/09/21 02:25:31;;;;;;;29.83;18.20;;;9.40;99.90;;;;;;5057720;28;20106;-73
2022/09/21 02:28:05;;;;;;;31.27;18.77;;;9.40;99.90;;;;;;5075660;28;20119;-73
2022/09/21 02:30:35;;;;;;;31.08;18.98;;;9.40;99.90;;;;;;5075457;28;20569;-72
2022/09/21 02:33:10;;;;;;;28.63;18.70;;;9.40;99.90;;;;;;5075476;28;20048;-72
2022/09/21 02:35:41;;;;;;;30.85;18.98;;;9.40;99.90;;;;;;5075759;28;20036;-72
2022/09/21 02:38:15;;;;;;;34.22;19.13;;;9.40;99.90;;;;;;5057781;28;20048;-72
2022/09/21 02:40:52;;;;;;;34.78;21.08;;;9.40;99.90;;;;;;5056995;28;20055;-72
2022/09/21 02:43:24;;;;;;;46.08;24.23;;;9.30;99.90;;;;;;5075353;28;20040;-72
2022/09/21 02:45:59;;;;;;;57.30;29.38;;;9.30;99.90;;;;;;5057456;28;20473;-73
2022/09/21 02:48:32;;;;;;;53.03;27.17;;;9.30;99.90;;;;;;5056904;28;20047;-71
2022/09/21 02:51:05;;;;;;;49.88;26.23;;;9.30;99.90;;;;;;5057901;28;20055;-72
2022/09/21 02:53:37;;;;;;;55.28;28.02;;;9.30;99.90;;;;;;5075398;28;20040;-72
2022/09/21 02:56:07;;;;;;;60.20;27.65;;;9.30;99.90;;;;;;5075470;28;20492;-72
2022/09/21 02:58:39;;;;;;;50.38;25.92;;;9.30;99.90;;;;;;5070700;28;20048;-72
2022/09/21 03:01:10;;;;;;;47.83;26.10;;;9.30;99.90;;;;;;5077546;28;20063;-72
2022/09/21 03:03:38;;;;;;;61.45;30.90;;;9.40;99.90;;;;;;5077289;28;20079;-72
2022/09/21 03:06:05;;;;;;;64.45;33.50;;;9.40;99.90;;;;;;5095652;28;20097;-73
2022/09/21 03:08:33;;;;;;;71.65;36.78;;;9.50;99.90;;;;;;5079986;28;20048;-73
2022/09/21 03:11:01;;;;;;;76.72;38.08;;;9.60;99.90;;;;;;5095308;28;20043;-72
2022/09/21 03:13:29;;;;;;;74.43;38.53;;;9.60;99.90;;;;;;5093901;28;20073;-72
2022/09/21 03:16:00;;;;;;;78.40;41.67;;;9.60;99.90;;;;;;5093834;28;20442;-73
2022/09/21 03:18:29;;;;;;;84.63;42.70;;;9.60;99.90;;;;;;5094542;28;20111;-72
2022/09/21 03:20:57;;;;;;;87.70;41.55;;;9.70;99.90;;;;;;5094480;28;20054;-73
2022/09/21 03:23:24;;;;;;;79.82;40.20;;;9.70;99.90;;;;;;5094340;28;20101;-72
2022/09/21 03:25:53;;;;;;;74.03;36.75;;;9.70;99.90;;;;;;5094887;28;20052;-73
2022/09/21 03:28:21;;;;;;;84.03;38.25;;;9.70;99.90;;;;;;5077113;28;20048;-72
2022/09/21 03:30:49;;;;;;;81.57;37.58;;;9.60;99.90;;;;;;5095227;28;20044;-72
2022/09/21 03:33:17;;;;;;;91.85;39.80;;;9.50;99.90;;;;;;5094965;28;20036;-72
2022/09/21 03:35:48;;;;;;;91.28;39.78;;;9.50;99.90;;;;;;5098472;28;20437;-72
2022/09/21 03:38:16;;;;;;;90.00;37.75;;;9.40;99.90;;;;;;5098460;28;20040;-72
2022/09/21 03:40:45;;;;;;;88.90;38.28;;;9.40;99.90;;;;;;5079570;28;20048;-72
2022/09/21 03:43:13;;;;;;;80.75;37.72;;;9.30;99.90;;;;;;5076195;28;20082;-72
2022/09/21 03:45:41;;;;;;;82.93;36.45;;;9.30;99.90;;;;;;5076636;28;20043;-72
2022/09/21 03:48:10;;;;;;;85.93;37.63;;;9.20;99.90;;;;;;5094645;28;20063;-73
2022/09/21 03:50:38;;;;;;;94.28;39.35;;;9.20;99.90;;;;;;5074496;28;20044;-72
2022/09/21 03:53:07;;;;;;;84.38;39.03;;;9.20;99.90;;;;;;5077352;28;20445;-72
2022/09/21 03:55:35;;;;;;;96.88;41.22;;;9.10;99.90;;;;;;5094166;28;20044;-73
2022/09/21 03:58:03;;;;;;;91.55;39.50;;;9.10;99.90;;;;;;5069337;28;20048;-73
2022/09/21 04:00:31;;;;;;;91.57;40.80;;;9.00;99.90;;;;;;5074384;28;20047;-73
2022/09/21 04:02:58;;;;;;;95.32;40.70;;;9.00;99.90;;;;;;5056190;28;20044;-74
2022/09/21 04:05:26;;;;;;;89.03;39.47;;;9.00;99.90;;;;;;5074199;28;20484;-74
2022/09/21 04:07:55;;;;;;;90.50;40.60;;;8.90;99.90;;;;;;5074086;28;20041;-75
2022/09/21 04:10:31;;;;;;;98.53;43.88;;;8.80;99.90;;;;;;5074068;28;20048;-74
2022/09/21 04:13:01;;;;;;;111.53;47.40;;;8.80;99.90;;;;;;5055843;28;20094;-74
2022/09/21 04:15:30;;;;;;;108.80;49.88;;;8.70;99.90;;;;;;5074044;28;20131;-73
2022/09/21 04:17:58;;;;;;;102.53;49.10;;;8.70;99.90;;;;;;5055991;28;20041;-74
2022/09/21 04:20:25;;;;;;;106.40;47.28;;;8.70;99.90;;;;;;5056023;28;20044;-74
2022/09/21 04:22:52;;;;;;;94.22;44.08;;;8.70;99.90;;;;;;5055491;28;20063;-73
2022/09/21 04:25:20;;;;;;;90.05;45.17;;;8.80;99.90;;;;;;5055673;28;20094;-74
2022/09/21 04:27:49;;;;;;;96.85;47.67;;;8.80;99.90;;;;;;5073909;28;20416;-74
2022/09/21 04:30:17;;;;;;;94.82;47.53;;;8.90;99.90;;;;;;5055174;28;20179;-73
2022/09/21 04:32:45;;;;;;;89.28;46.13;;;8.80;99.90;;;;;;5073256;28;20040;-74
2022/09/21 04:35:12;;;;;;;92.13;45.28;;;8.80;99.90;;;;;;5073472;28;20067;-74
2022/09/21 04:37:40;;;;;;;89.00;44.53;;;8.80;99.90;;;;;;5055778;28;20054;-73
2022/09/21 04:40:08;;;;;;;65.15;32.40;;;8.90;99.90;;;;;;5055659;28;20106;-74
2022/09/21 04:42:36;;;;;;;61.70;33.50;;;8.90;99.90;;;;;;5055237;28;20442;-73
2022/09/21 04:45:06;;;;;;;57.40;32.13;;;8.90;99.90;;;;;;5055923;28;20072;-73
2022/09/21 04:47:34;;;;;;;52.85;30.05;;;8.90;99.90;;;;;;5073976;28;20041;-73
2022/09/21 04:50:01;;;;;;;54.65;30.73;;;8.90;99.90;;;;;;5055460;28;20135;-74
2022/09/21 04:52:28;;;;;;;115.40;38.25;;;8.90;99.90;;;;;;5054956;28;20392;-74
2022/09/21 04:54:56;;;;;;;70.03;37.75;;;9.00;99.90;;;;;;5073611;28;20048;-74
2022/09/21 04:57:23;;;;;;;80.72;39.05;;;9.00;99.90;;;;;;5073627;28;20128;-74
2022/09/21 04:59:50;;;;;;;76.50;39.20;;;9.10;99.90;;;;;;5074567;28;20036;-74
2022/09/21 05:02:19;;;;;;;68.47;34.85;;;9.10;99.90;;;;;;5074339;28;20053;-72
2022/09/21 05:04:47;;;;;;;68.80;35.70;;;9.20;99.90;;;;;;5074971;28;20081;-74
2022/09/21 05:07:14;;;;;;;70.80;36.05;;;9.20;99.90;;;;;;5057512;28;20052;-73
2022/09/21 05:12:26;;;;;;;67.80;34.58;;;9.20;99.90;;;;;;5061849;28;20036;-74
2022/09/21 05:14:54;;;;;;;91.05;38.53;;;9.20;99.90;;;;;;5060844;28;20040;-72
2022/09/21 05:17:24;;;;;;;74.25;37.47;;;9.20;99.90;;;;;;5061853;28;20036;-74
2022/09/21 05:19:52;;;;;;;82.15;41.20;;;9.20;99.90;;;;;;5060995;28;20438;-73
2022/09/21 05:22:20;;;;;;;81.32;43.85;;;9.30;99.90;;;;;;5077587;28;20055;-74
2022/09/21 05:24:47;;;;;;;84.80;45.72;;;9.30;99.90;;;;;;5078361;28;20040;-74
2022/09/21 05:27:15;;;;;;;61.63;33.13;;;9.40;99.90;;;;;;5061729;28;20072;-74
2022/09/21 05:29:43;;;;;;;56.55;31.48;;;9.50;99.90;;;;;;5065149;28;20063;-73
2022/09/21 05:32:18;;;;;;;58.70;31.90;;;9.50;99.90;;;;;;5061299;28;20070;-73
2022/09/21 05:34:59;;;;;;;62.45;33.92;;;9.50;99.90;;;;;;5078908;28;20037;-74
2022/09/21 05:37:44;;;;;;;68.05;34.55;;;9.60;99.90;;;;;;5061281;28;20055;-74
2022/09/21 05:40:13;;;;;;;58.40;31.80;;;9.70;99.90;;;;;;5077821;28;20403;-73
2022/09/21 05:42:40;;;;;;;53.45;31.55;;;9.80;99.90;;;;;;5065295;28;20447;-74
2022/09/21 05:45:13;;;;;;;45.53;27.75;;;9.90;99.90;;;;;;5059020;28;20068;-74
2022/09/21 05:47:49;;;;;;;48.88;26.92;;;9.90;99.90;;;;;;5064213;28;20039;-74
2022/09/21 05:50:32;;;;;;;58.50;34.78;;;10.00;99.90;;;;;;5078661;28;20051;-74
2022/09/21 05:53:08;;;;;;;72.10;33.15;;;10.10;99.90;;;;;;5076005;28;20059;-74
2022/09/21 05:55:45;;;;;;;56.10;33.05;;;10.20;99.90;;;;;;5062214;28;20047;-74
2022/09/21 05:58:20;;;;;;;75.15;39.47;;;10.10;99.90;;;;;;5066471;28;20053;-74
2022/09/21 06:01:05;;;;;;;65.20;36.13;;;10.20;99.90;;;;;;5079528;28;20381;-74
2022/09/21 06:03:35;;;;;;;72.15;38.25;;;10.20;99.90;;;;;;5083698;28;20075;-73
2022/09/21 06:06:03;;;;;;;65.32;36.03;;;10.20;99.90;;;;;;5079645;28;20059;-73
2022/09/21 06:08:31;;;;;;;66.43;35.13;;;10.20;99.90;;;;;;5079843;28;20040;-74
2022/09/21 06:10:58;;;;;;;68.72;37.15;;;10.30;99.90;;;;;;5079481;28;20051;-74
2022/09/21 06:13:26;;;;;;;64.22;35.70;;;10.40;99.90;;;;;;5078730;28;20068;-76
2022/09/21 06:15:54;;;;;;;82.53;37.97;;;10.40;99.90;;;;;;5061314;28;20048;-74
2022/09/21 06:18:21;;;;;;;65.28;36.17;;;10.50;99.90;;;;;;5071642;28;20047;-75
2022/09/21 06:20:48;;;;;;;61.00;34.40;;;10.70;99.90;;;;;;5082812;28;20048;-74
2022/09/21 06:23:17;;;;;;;66.15;33.22;;;10.80;99.90;;;;;;5080847;28;20054;-74
2022/09/21 06:25:44;;;;;;;80.18;45.53;;;11.00;99.90;;;;;;5078206;28;20036;-74
2022/09/21 06:28:13;;;;;;;59.88;31.02;;;11.20;99.90;;;;;;5059365;28;20055;-74
2022/09/21 06:30:41;;;;;;;55.17;29.15;;;11.50;99.90;;;;;;5079921;28;20045;-75
2022/09/21 06:33:09;;;;;;;55.70;30.92;;;11.60;99.90;;;;;;5082193;28;20049;-74
2022/09/21 06:35:39;;;;;;;61.92;27.95;;;11.70;99.90;;;;;;5080225;28;20037;-74
2022/09/21 06:38:08;;;;;;;51.00;29.55;;;11.60;99.90;;;;;;5077707;28;20068;-74
2022/09/21 06:40:37;;;;;;;42.05;21.77;;;11.40;99.90;;;;;;5078541;28;20050;-75
2022/09/21 06:43:05;;;;;;;39.42;17.77;;;11.20;99.90;;;;;;5077064;28;20036;-73
2022/09/21 06:45:33;;;;;;;37.20;19.52;;;11.00;99.90;;;;;;5076337;28;20051;-74
2022/09/21 06:48:00;;;;;;;44.83;20.88;;;11.00;99.90;;;;;;5076202;28;20082;-73
2022/09/21 06:50:28;;;;;;;39.60;20.77;;;11.10;99.90;;;;;;5077967;28;20087;-72
2022/09/21 06:52:55;;;;;;;37.42;20.40;;;11.20;99.90;;;;;;5080114;28;20049;-74
2022/09/21 06:55:22;;;;;;;43.40;22.00;;;11.50;99.90;;;;;;5079094;28;20124;-75
2022/09/21 06:57:51;;;;;;;42.30;20.30;;;11.70;99.90;;;;;;5076703;28;20052;-75
2022/09/21 07:00:19;;;;;;;47.28;21.02;;;11.80;99.90;;;;;;5077586;28;20086;-74
2022/09/21 07:02:47;;;;;;;40.50;22.92;;;12.00;99.90;;;;;;5061495;28;20110;-75
2022/09/21 07:05:14;;;;;;;42.33;22.88;;;12.20;99.90;;;;;;5060290;28;20065;-73
2022/09/21 07:07:41;;;;;;;50.83;25.80;;;12.20;99.90;;;;;;5058061;28;20440;-75
2022/09/21 07:10:10;;;;;;;44.13;23.30;;;12.20;99.90;;;;;;5075249;28;20045;-75
2022/09/21 07:12:37;;;;;;;47.17;24.25;;;12.50;99.90;;;;;;5075087;28;20093;-75
2022/09/21 07:15:09;;;;;;;51.22;23.25;;;12.60;99.90;;;;;;5057195;28;20056;-76
2022/09/21 07:17:37;;;;;;;39.42;19.67;;;12.80;99.90;;;;;;5075193;28;20055;-74
2022/09/21 07:20:07;;;;;;;37.40;19.05;;;12.80;99.90;;;;;;5075826;28;20412;-75
2022/09/21 07:22:34;;;;;;;27.10;14.95;;;12.80;99.90;;;;;;5074862;28;20048;-76
2022/09/21 07:25:02;;;;;;;31.70;16.80;;;12.80;99.90;;;;;;5075177;28;20462;-74
2022/09/21 07:27:31;;;;;;;35.90;16.90;;;12.80;99.90;;;;;;5075031;28;20048;-75
2022/09/21 07:29:58;;;;;;;27.63;15.10;;;13.00;99.90;;;;;;5075999;28;20106;-75
2022/09/21 07:32:27;;;;;;;28.58;15.90;;;13.00;99.90;;;;;;5055996;28;20082;-75
2022/09/21 07:34:55;;;;;;;26.75;15.60;;;13.00;99.90;;;;;;5075157;28;20048;-76
2022/09/21 07:37:23;;;;;;;22.10;13.27;;;12.80;99.90;;;;;;5075463;28;20051;-75
2022/09/21 07:39:51;;;;;;;22.85;13.55;;;12.80;99.90;;;;;;5075572;28;20068;-76
2022/09/21 07:42:20;;;;;;;24.23;12.73;;;12.80;99.90;;;;;;5075017;28;20056;-75
2022/09/21 07:44:47;;;;;;;19.33;11.02;;;12.70;99.90;;;;;;5058321;28;20048;-76
2022/09/21 07:47:15;;;;;;;19.58;8.60;;;12.90;99.90;;;;;;5075736;28;20037;-75
2022/09/21 07:49:45;;;;;;;14.35;8.38;;;12.80;99.90;;;;;;5057883;28;20072;-77
2022/09/21 07:52:14;;;;;;;14.55;8.02;;;12.80;99.90;;;;;;5074064;28;20049;-76
2022/09/21 07:54:42;;;;;;;18.73;8.50;;;12.80;99.90;;;;;;5078242;28;20227;-75
2022/09/21 07:59:57;;;;;;;12.93;8.13;;;13.10;99.90;;;;;;5077481;28;20048;-76
2022/09/21 08:02:24;;;;;;;13.13;8.27;;;13.20;99.90;;;;;;5077433;28;20506;-75
2022/09/21 08:04:53;;;;;;;9.18;6.32;;;13.30;99.90;;;;;;5074010;28;20082;-76
2022/09/21 08:07:21;;;;;;;10.20;7.18;;;13.70;99.90;;;;;;5080201;28;20062;-75
2022/09/21 08:09:49;;;;;;;12.02;7.22;;;13.70;99.90;;;;;;5079142;28;20470;-76
2022/09/21 08:12:17;;;;;;;12.48;8.00;;;14.10;99.90;;;;;;5078604;28;20056;-77
2022/09/21 08:14:45;;;;;;;9.32;5.82;;;14.20;99.90;;;;;;5073657;28;20488;-77
2022/09/21 08:17:12;;;;;;;14.80;8.77;;;14.10;99.90;;;;;;5077830;28;20443;-78
2022/09/21 08:19:39;;;;;;;9.13;5.95;;;13.90;99.90;;;;;;5068978;28;20033;-77
2022/09/21 08:22:08;;;;;;;8.95;5.95;;;13.80;99.90;;;;;;5058486;28;20048;-77
2022/09/21 08:24:36;;;;;;;11.93;7.38;;;13.90;99.90;;;;;;5069494;28;20044;-77
2022/09/21 08:27:04;;;;;;;15.88;9.32;;;14.20;99.90;;;;;;5078141;28;20474;-76
2022/09/21 08:29:31;;;;;;;15.30;8.00;;;14.60;99.90;;;;;;5074801;28;20408;-77
2022/09/21 08:31:58;;;;;;;12.68;5.82;;;14.80;99.90;;;;;;5056174;28;20075;-76
2022/09/21 08:34:26;;;;;;;11.25;7.28;;;14.30;99.90;;;;;;5053943;28;20045;-76
2022/09/21 08:36:54;;;;;;;9.70;6.55;;;14.30;99.90;;;;;;5057151;28;20068;-75
2022/09/21 08:39:23;;;;;;;13.02;7.13;;;14.40;99.90;;;;;;5071119;28;20059;-74
2022/09/21 08:42:00;;;;;;;15.13;6.93;;;14.40;99.90;;;;;;5075085;28;20060;-75
2022/09/21 08:44:33;;;;;;;13.07;8.10;;;14.60;99.90;;;;;;5073927;28;20049;-74
2022/09/21 08:47:04;;;;;;;11.80;7.13;;;14.50;99.90;;;;;;5073803;28;20545;-75
2022/09/21 08:49:35;;;;;;;13.57;7.18;;;14.30;99.90;;;;;;5067393;28;20056;-75
2022/09/21 08:52:05;;;;;;;9.27;6.00;;;14.30;99.90;;;;;;5057304;28;20045;-74
2022/09/21 08:54:42;;;;;;;12.73;6.70;;;14.50;99.90;;;;;;5065120;28;20415;-75
2022/09/21 08:57:12;;;;;;;12.48;7.00;;;14.80;99.90;;;;;;5060056;28;20047;-75
2022/09/21 08:59:44;;;;;;;9.73;5.72;;;14.70;99.90;;;;;;5068858;28;20410;-76
2022/09/21 09:02:42;;;;;;;8.57;5.50;;;14.70;99.90;;;;;;5082512;28;20044;-70
2022/09/21 09:05:25;;;;;;;13.35;6.60;;;14.50;99.90;;;;;;5070825;28;20139;-70
2022/09/21 09:08:09;;;;;;;11.13;5.18;;;14.40;99.90;;;;;;5082121;28;20044;-72
2022/09/21 09:10:41;;;;;;;12.85;7.72;;;14.40;99.90;;;;;;5071883;28;20453;-70
2022/09/21 09:13:30;;;;;;;10.65;5.90;;;14.60;99.90;;;;;;5082810;28;20044;-70
2022/09/21 09:16:10;;;;;;;9.52;4.53;;;14.70;99.90;;;;;;5089543;28;20499;-73
2022/09/21 09:18:44;;;;;;;9.70;5.47;;;14.90;99.90;;;;;;5074681;28;20052;-70
2022/09/21 09:21:16;;;;;;;22.60;6.68;;;15.00;99.90;;;;;;5093281;28;20155;-70
2022/09/21 09:23:48;;;;;;;9.60;4.60;;;15.20;99.90;;;;;;5092928;28;20055;-71
2022/09/21 09:26:21;;;;;;;12.52;5.88;;;15.30;99.90;;;;;;5092295;28;20039;-69
2022/09/21 09:28:54;;;;;;;52.75;8.55;;;15.30;99.90;;;;;;5093035;28;20046;-70
2022/09/21 09:31:28;;;;;;;8.82;5.00;;;15.40;99.90;;;;;;5093158;28;20063;-71
2022/09/21 09:34:01;;;;;;;10.90;4.35;;;15.40;99.90;;;;;;5054832;28;20052;-70
2022/09/21 09:36:31;;;;;;;12.48;6.10;;;15.40;99.90;;;;;;5089085;28;20491;-69
2022/09/21 09:39:02;;;;;;;6.35;4.55;;;15.20;99.90;;;;;;5091658;28;20047;-70
2022/09/21 09:41:46;;;;;;;10.18;5.95;;;15.10;99.90;;;;;;5076383;28;20080;-70
2022/09/21 09:44:42;;;;;;;9.90;4.55;;;14.90;99.90;;;;;;5072634;28;20041;-70
2022/09/21 09:47:22;;;;;;;10.10;4.82;;;14.70;99.90;;;;;;5075508;28;20036;-70
2022/09/21 09:50:04;;;;;;;11.45;6.18;;;14.50;99.90;;;;;;5072906;28;20036;-70
2022/09/21 09:52:32;;;;;;;20.95;12.50;;;14.40;99.90;;;;;;5072826;28;20056;-69
2022/09/21 09:54:59;;;;;;;14.95;8.38;;;14.40;99.90;;;;;;5074813;28;20052;-70
2022/09/21 09:57:32;;;;;;;26.67;7.85;;;14.40;99.90;;;;;;5075980;28;20082;-70
2022/09/21 10:00:03;;;;;;;13.90;6.15;;;14.60;99.90;;;;;;5097362;28;20040;-70
2022/09/21 10:02:48;;;;;;;10.95;6.32;;;14.90;99.90;;;;;;5093814;28;20056;-70
2022/09/21 10:05:22;;;;;;;12.65;6.28;;;15.20;99.90;;;;;;5069484;28;20040;-70
2022/09/21 10:07:50;;;;;;;9.02;5.60;;;15.50;99.90;;;;;;5065592;28;20055;-70
2022/09/21 10:10:31;;;;;;;9.30;4.93;;;15.90;99.90;;;;;;5065786;28;20151;-70
2022/09/21 10:13:10;;;;;;;20.23;11.60;;;16.30;99.90;;;;;;5096001;28;20052;-70
2022/09/21 10:15:43;;;;;;;16.45;10.35;;;16.60;99.90;;;;;;5107850;28;20071;-70
2022/09/21 10:18:20;;;;;;;16.23;10.90;;;16.80;99.90;;;;;;5084531;28;20052;-70
2022/09/21 10:20:56;;;;;;;14.13;9.93;;;16.50;99.90;;;;;;5081184;28;20040;-70
2022/09/21 10:23:24;;;;;;;15.23;7.38;;;16.60;99.90;;;;;;5076799;28;20036;-70
2022/09/21 10:25:57;;;;;;;7.60;4.72;;;16.40;99.90;;;;;;5076868;28;20507;-70
2022/09/21 10:28:27;;;;;;;8.25;4.32;;;15.90;99.90;;;;;;5076687;28;20049;-72
2022/09/21 10:31:10;;;;;;;13.60;5.35;;;15.50;99.90;;;;;;5082928;28;20036;-71
2022/09/21 10:33:51;;;;;;;10.30;5.45;;;15.30;99.90;;;;;;5078503;28;20059;-70
2022/09/21 10:36:36;;;;;;;8.27;3.60;;;15.20;99.90;;;;;;5064524;28;20102;-71
2022/09/21 10:39:12;;;;;;;7.68;3.08;;;15.10;99.90;;;;;;5067723;28;20044;-71
2022/09/21 10:41:39;;;;;;;;;;;15.00;99.90;;;;;;5089625;28;20036;-71
2022/09/21 10:44:18;;;;;;;20.35;5.82;;;14.80;99.90;;;;;;5055609;28;19974;-70
2022/09/21 10:46:46;;;;;;;6.65;3.00;;;14.80;99.90;;;;;;5056190;28;20458;-70
2022/09/21 10:49:20;;;;;;;9.90;3.25;;;14.80;99.90;;;;;;5061882;28;20051;-71
2022/09/21 10:51:49;;;;;;;5.18;2.97;;;14.80;99.90;;;;;;5095669;28;20075;-70
2022/09/21 10:54:22;;;;;;;3.28;2.35;;;14.80;99.90;;;;;;5096930;28;20445;-71
2022/09/21 10:57:01;;;;;;;5.32;2.20;;;15.00;99.90;;;;;;5096221;28;20040;-70
2022/09/21 10:59:31;;;;;;;5.57;2.80;;;15.20;99.90;;;;;;5068822;28;20060;-70
2022/09/21 11:02:00;;;;;;;4.75;2.65;;;15.80;99.90;;;;;;5083932;28;20111;-71
2022/09/21 11:04:45;;;;;;;4.60;2.42;;;16.10;99.90;;;;;;5088330;28;20070;-69
2022/09/21 11:07:22;;;;;;;3.83;2.60;;;15.90;99.90;;;;;;5091935;28;20051;-72
2022/09/21 11:09:57;;;;;;;4.78;2.47;;;16.10;99.90;;;;;;5087795;28;20045;-71
2022/09/21 11:12:45;;;;;;;5.37;2.90;;;15.70;99.90;;;;;;5078880;28;20067;-69
2022/09/21 11:15:23;;;;;;;5.55;3.15;;;15.60;99.90;;;;;;5077071;28;20293;-70
2022/09/21 11:17:58;;;;;;;4.82;2.97;;;15.50;99.90;;;;;;5077628;28;20059;-71
2022/09/21 11:20:31;;;;;;;6.93;2.87;;;15.40;99.90;;;;;;5057862;28;20053;-72
2022/09/21 11:23:05;;;;;;;7.28;3.83;;;15.30;99.90;;;;;;5083572;28;20519;-72
2022/09/21 11:25:41;;;;;;;8.98;3.92;;;15.40;99.90;;;;;;5082471;28;20043;-72
2022/09/21 11:28:13;;;;;;;;;;;15.60;99.90;;;;;;5065122;28;20044;-72
2022/09/21 11:31:02;;;;;;;7.97;4.30;;;16.00;99.90;;;;;;5059305;28;19921;-71
2022/09/21 11:33:48;;;;;;;3.88;2.70;;;16.40;99.90;;;;;;5072232;28;20055;-71
2022/09/21 11:36:21;;;;;;;;;;;16.60;99.90;;;;;;5074862;28;20055;-71
2022/09/21 11:38:57;;;;;;;7.03;3.38;;;16.70;99.90;;;;;;5074955;28;19946;-72
2022/09/21 11:41:50;;;;;;;4.05;2.75;;;16.30;99.90;;;;;;5076036;28;20044;-71
2022/09/21 11:44:29;;;;;;;4.50;2.55;;;15.60;99.90;;;;;;5076931;28;20044;-74
2022/09/21 11:47:07;;;;;;;5.82;2.80;;;15.50;99.90;;;;;;5076461;28;20476;-74
2022/09/21 11:49:50;;;;;;;4.35;3.15;;;15.70;99.90;;;;;;5074863;28;20055;-75
2022/09/21 11:52:33;;;;;;;7.22;3.40;;;15.80;99.90;;;;;;5075078;28;20044;-73
2022/09/21 11:55:33;;;;;;;5.80;3.42;;;16.30;99.90;;;;;;5075817;28;20084;-73
2022/09/21 11:58:10;;;;;;;5.53;2.60;;;16.60;99.90;;;;;;5081577;28;20058;-73
2022/09/21 12:00:50;;;;;;;6.07;3.08;;;17.00;99.90;;;;;;5075553;28;20149;-73
2022/09/21 12:03:33;;;;;;;5.63;2.88;;;16.90;99.90;;;;;;5076051;28;20127;-75
2022/09/21 12:06:11;;;;;;;3.35;2.08;;;16.30;99.90;;;;;;5087691;28;20137;-74
2022/09/21 12:09:11;;;;;;;5.55;3.28;;;16.10;99.90;;;;;;5087092;28;20044;-75
2022/09/21 12:11:43;;;;;;;8.15;2.58;;;16.20;99.90;;;;;;5069121;28;20130;-74
2022/09/21 12:14:21;;;;;;;5.97;3.20;;;16.30;99.90;;;;;;5093751;28;20085;-73
2022/09/21 12:16:56;;;;;;;3.05;1.77;;;16.40;99.90;;;;;;5075101;28;20139;-73
2022/09/21 12:19:34;;;;;;;2.78;1.80;;;16.40;99.90;;;;;;5094161;28;20501;-74
2022/09/21 12:22:08;;;;;;;3.13;2.10;;;16.20;99.90;;;;;;5096890;28;20081;-78
2022/09/21 12:24:40;;;;;;;6.03;2.75;;;16.40;99.90;;;;;;5091985;28;20446;-72
2022/09/21 12:27:14;;;;;;;3.67;2.35;;;16.60;99.90;;;;;;5094353;28;20050;-76
2022/09/21 12:29:46;;;;;;;6.32;3.65;;;16.90;99.90;;;;;;5095326;28;20044;-76
2022/09/21 12:32:21;;;;;;;6.22;3.10;;;17.00;99.90;;;;;;5076046;28;20048;-75
2022/09/21 12:34:55;;;;;;;64.03;40.47;;;16.80;99.90;;;;;;5088559;28;20578;-71
2022/09/21 12:37:30;;;;;;;40.45;26.15;;;16.50;99.90;;;;;;5082893;28;20099;-77
2022/09/21 12:40:02;;;;;;;8.23;3.22;;;16.20;99.90;;;;;;5075768;28;20044;-71
2022/09/21 12:42:36;;;;;;;7.18;3.22;;;15.90;99.90;;;;;;5080384;28;20048;-70
2022/09/21 12:45:13;;;;;;;5.07;2.97;;;15.80;99.90;;;;;;5087550;28;20043;-71
2022/09/21 12:47:58;;;;;;;3.90;2.80;;;15.80;99.90;;;;;;5092043;28;20036;-71
2022/09/21 12:50:32;;;;;;;5.20;2.47;;;15.70;99.90;;;;;;5086385;28;20040;-71
2022/09/21 12:53:00;;;;;;;6.03;2.72;;;16.00;99.90;;;;;;5064002;28;20388;-70
2022/09/21 12:55:44;;;;;;;7.40;4.07;;;16.30;99.90;;;;;;5092803;28;20384;-70
2022/09/21 12:58:23;;;;;;;8.52;3.35;;;16.60;99.90;;;;;;5082035;28;20131;-70
2022/09/21 13:01:00;;;;;;;6.32;2.53;;;16.70;99.90;;;;;;5066368;28;20412;-71
2022/09/21 13:03:33;;;;;;;5.78;2.60;;;16.80;99.90;;;;;;5092487;28;20044;-69
2022/09/21 13:06:28;;;;;;;3.97;2.13;;;16.90;99.90;;;;;;5085950;28;20507;-70
2022/09/21 13:08:56;;;;;;;3.60;1.85;;;16.80;99.90;;;;;;5073268;28;20048;-72